Time;durP1;ratioP1;P1;durP2;ratioP2;P2;SDS_P1;SDS_P2;PMS_P1;PMS_P2;Temp;Humidity;BMP_temperature;BMP_pressure;BME280_temperature;BME280_humidity;BME280_pressure;Samples;Min_cycle;Max_cycle;Signal;HPM_P1;HPM_P2
2023/09/09 00:02:59;;;;;;;9.68;3.22;;;;;;;16.03;63.02;100035.72;10337878;28;20131;-84
2023/09/09 00:08:01;;;;;;;4.55;2.90;;;;;;;16.00;62.98;100031.50;10330289;28;20458;-84
2023/09/09 00:13:05;;;;;;;7.13;2.78;;;;;;;15.75;63.25;100034.44;10338881;28;20392;-84
2023/09/09 00:18:07;;;;;;;4.45;2.33;;;;;;;15.78;63.32;100034.19;10329238;28;20108;-84
2023/09/09 00:23:09;;;;;;;6.68;2.40;;;;;;;15.89;62.98;100031.53;10330367;28;20049;-84
2023/09/09 00:28:13;;;;;;;5.20;2.65;;;;;;;15.80;63.25;100027.00;10322027;28;20053;-85
2023/09/09 00:33:16;;;;;;;5.05;2.30;;;;;;;15.71;63.45;100024.25;10321696;28;20058;-84
2023/09/09 00:38:18;;;;;;;8.93;2.83;;;;;;;15.67;63.50;100018.41;10342741;28;20056;-84
2023/09/09 00:43:20;;;;;;;5.28;2.45;;;;;;;15.67;63.39;100015.75;10328861;28;20050;-85
2023/09/09 00:48:22;;;;;;;5.20;2.50;;;;;;;15.69;63.38;100018.28;10344884;28;20057;-84
2023/09/09 00:53:26;;;;;;;6.38;2.60;;;;;;;15.68;63.13;100011.31;10344598;28;20054;-85
2023/09/09 00:58:31;;;;;;;5.10;2.53;;;;;;;15.62;63.63;100012.63;10331605;28;20438;-85
2023/09/09 01:03:34;;;;;;;7.32;2.50;;;;;;;15.57;63.61;100019.25;10368990;28;20041;-84
2023/09/09 01:08:37;;;;;;;4.40;2.50;;;;;;;15.41;63.94;100017.75;10359824;28;20049;-84
2023/09/09 01:13:40;;;;;;;3.83;2.30;;;;;;;15.37;63.86;100011.06;10377996;28;20052;-85
2023/09/09 01:18:42;;;;;;;4.32;2.50;;;;;;;15.37;63.70;100018.13;10384455;28;20053;-85
2023/09/09 01:23:45;;;;;;;5.88;2.55;;;;;;;15.33;63.85;100020.16;10368630;28;20052;-84
2023/09/09 01:28:47;;;;;;;4.43;2.65;;;;;;;15.26;63.73;100020.75;10367823;28;20053;-84
2023/09/09 01:33:52;;;;;;;5.07;2.78;;;;;;;15.30;63.63;100024.84;10375425;28;20056;-84
2023/09/09 01:38:54;;;;;;;5.07;2.65;;;;;;;15.29;63.52;100025.78;10383571;28;20276;-84
2023/09/09 01:43:56;;;;;;;6.90;2.67;;;;;;;15.25;63.78;100032.25;10398452;28;20042;-85
2023/09/09 01:49:00;;;;;;;4.63;2.70;;;;;;;15.15;63.91;100021.59;10381741;28;20123;-84
2023/09/09 01:54:02;;;;;;;6.93;2.97;;;;;;;15.17;63.78;100024.94;10364985;28;20049;-84
2023/09/09 01:59:05;;;;;;;5.68;2.60;;;;;;;15.01;63.68;100026.22;10373052;28;20060;-85
2023/09/09 02:04:08;;;;;;;4.45;2.40;;;;;;;15.01;63.91;100026.22;10361623;28;20152;-84
2023/09/09 02:09:10;;;;;;;5.07;2.67;;;;;;;14.91;64.18;100025.25;10372407;28;20059;-85
2023/09/09 02:14:12;;;;;;;5.15;2.35;;;;;;;14.81;64.43;100026.91;10387695;28;20092;-85
2023/09/09 02:19:14;;;;;;;4.72;2.63;;;;;;;14.76;64.23;100022.00;10381323;28;20157;-85
2023/09/09 02:24:17;;;;;;;5.60;2.63;;;;;;;14.84;64.15;100026.69;10363392;28;20046;-85
2023/09/09 02:29:19;;;;;;;5.00;2.58;;;;;;;14.71;64.15;100024.16;10403547;28;20135;-85
2023/09/09 02:34:21;;;;;;;6.15;2.70;;;;;;;14.59;64.50;100028.50;10362499;28;20398;-84
2023/09/09 02:39:23;;;;;;;6.20;2.55;;;;;;;14.62;64.56;100026.59;10380149;28;20053;-85
2023/09/09 02:44:25;;;;;;;6.22;2.60;;;;;;;14.64;64.35;100035.22;10361850;28;20107;-85
2023/09/09 02:49:28;;;;;;;5.82;3.20;;;;;;;14.69;64.02;100028.69;10386886;28;20053;-85
2023/09/09 02:54:30;;;;;;;6.18;2.45;;;;;;;14.69;63.81;100030.47;10377860;28;20037;-85
2023/09/09 02:59:33;;;;;;;4.47;2.63;;;;;;;14.71;63.95;100023.28;10386011;28;20148;-85
2023/09/09 03:04:38;;;;;;;8.32;3.35;;;;;;;14.73;63.98;100031.91;10372717;28;20477;-85
2023/09/09 03:09:40;;;;;;;5.35;3.10;;;;;;;14.64;64.03;100030.81;10372538;28;20504;-84
2023/09/09 03:14:42;;;;;;;4.90;2.88;;;;;;;14.49;64.10;100027.53;10353257;28;20060;-85
2023/09/09 03:19:45;;;;;;;4.60;2.67;;;;;;;14.38;64.24;100031.88;10371716;28;20049;-85
2023/09/09 03:24:47;;;;;;;6.22;2.75;;;;;;;14.16;63.91;100031.78;10363879;28;20087;-84
2023/09/09 03:29:49;;;;;;;7.53;2.97;;;;;;;13.93;64.60;100029.97;10387717;28;20057;-84
2023/09/09 03:34:52;;;;;;;4.60;2.42;;;;;;;13.86;64.83;100032.19;10355790;28;20054;-85
2023/09/09 03:39:55;;;;;;;4.57;2.85;;;;;;;13.88;64.75;100034.72;10371000;28;20095;-84
2023/09/09 03:44:58;;;;;;;4.65;2.50;;;;;;;13.92;64.46;100037.03;10353610;28;20055;-84
2023/09/09 03:50:00;;;;;;;4.45;2.63;;;;;;;13.66;64.50;100038.00;10361559;28;20411;-84
2023/09/09 03:55:03;;;;;;;5.22;3.03;;;;;;;13.40;65.07;100033.72;10362650;28;20046;-84
2023/09/09 04:00:08;;;;;;;5.30;2.65;;;;;;;13.38;65.44;100040.88;10379194;28;20057;-85
2023/09/09 04:05:13;;;;;;;3.88;2.47;;;;;;;13.60;65.49;100038.44;10388221;28;20048;-84
2023/09/09 04:10:16;;;;;;;4.32;2.75;;;;;;;13.74;65.06;100040.94;10355754;28;20144;-85
2023/09/09 04:15:18;;;;;;;5.43;3.10;;;;;;;13.82;64.86;100043.88;10387420;28;20047;-84
2023/09/09 04:20:21;;;;;;;19.23;3.33;;;;;;;13.71;64.46;100041.16;10386851;28;20057;-84
2023/09/09 04:25:23;;;;;;;27.10;3.35;;;;;;;13.47;65.23;100042.91;10370503;28;20048;-84
2023/09/09 04:30:26;;;;;;;4.07;2.38;;;;;;;13.50;65.40;100037.41;10368737;28;20080;-85
2023/09/09 04:35:28;;;;;;;5.30;2.80;;;;;;;13.67;65.18;100034.47;10364421;28;20057;-85
2023/09/09 04:40:30;;;;;;;7.13;2.40;;;;;;;13.34;64.91;100037.63;10383861;28;21038;-85
2023/09/09 04:45:33;;;;;;;4.55;2.38;;;;;;;13.34;65.25;100042.03;10385354;28;20143;-84
2023/09/09 04:50:35;;;;;;;4.55;2.25;;;;;;;13.53;65.19;100039.84;10377700;28;20072;-84
2023/09/09 04:55:37;;;;;;;4.85;2.38;;;;;;;13.75;65.08;100042.63;10385317;28;20316;-84
2023/09/09 05:00:40;;;;;;;4.30;2.67;;;;;;;13.92;64.59;100050.19;10392201;28;20060;-84
2023/09/09 05:05:43;;;;;;;3.75;2.35;;;;;;;14.03;64.69;100047.59;10360335;28;20042;-85
2023/09/09 05:10:45;;;;;;;3.90;2.45;;;;;;;14.17;64.56;100047.44;10362136;28;20053;-85
2023/09/09 05:15:48;;;;;;;4.05;2.58;;;;;;;14.17;64.29;100050.06;10368829;28;20053;-84
2023/09/09 05:20:50;;;;;;;4.72;2.53;;;;;;;14.12;64.30;100049.56;10360782;28;20422;-85
2023/09/09 05:25:53;;;;;;;6.68;2.53;;;;;;;14.25;64.24;100058.25;10375597;28;20457;-85
2023/09/09 05:30:56;;;;;;;4.15;2.45;;;;;;;14.45;63.75;100057.63;10361534;28;20526;-85
2023/09/09 05:35:58;;;;;;;22.40;3.00;;;;;;;14.65;63.46;100055.34;10398967;28;20056;-84
2023/09/09 05:41:00;;;;;;;5.25;2.70;;;;;;;14.84;63.37;100060.94;10400362;28;20073;-85
2023/09/09 05:46:03;;;;;;;4.57;2.78;;;;;;;15.00;63.05;100062.25;10357270;28;20041;-85
2023/09/09 05:51:06;;;;;;;5.22;3.10;;;;;;;15.21;62.53;100067.69;10357062;28;20038;-85
2023/09/09 05:56:09;;;;;;;7.43;3.22;;;;;;;15.18;62.44;100060.88;10399693;28;20120;-84
2023/09/09 06:01:12;;;;;;;7.38;3.67;;;;;;;15.25;62.62;100061.22;10356962;28;20069;-84
2023/09/09 06:06:15;;;;;;;6.50;3.08;;;;;;;15.52;61.95;100077.59;10357476;28;20052;-84
2023/09/09 06:11:17;;;;;;;7.10;3.85;;;;;;;15.76;61.99;100072.19;10389792;28;20041;-85
2023/09/09 06:16:19;;;;;;;7.07;3.28;;;;;;;15.91;61.66;100077.09;10382563;28;20041;-85
2023/09/09 06:21:22;;;;;;;6.88;3.72;;;;;;;15.94;61.54;100076.84;10389626;28;20057;-85
2023/09/09 06:26:25;;;;;;;5.15;3.10;;;;;;;15.92;61.26;100080.56;10397437;28;20502;-84
2023/09/09 06:31:27;;;;;;;7.13;4.03;;;;;;;15.94;61.67;100084.75;10381085;28;20067;-84
2023/09/09 06:36:30;;;;;;;6.13;3.15;;;;;;;16.00;61.80;100096.63;10356600;28;20049;-84
2023/09/09 06:41:33;;;;;;;7.32;3.53;;;;;;;15.90;62.25;100100.94;10356318;28;20807;-84
2023/09/09 06:46:35;;;;;;;7.75;3.45;;;;;;;15.84;62.53;100097.00;10358157;28;20045;-84
2023/09/09 06:51:37;;;;;;;5.47;3.38;;;;;;;15.92;62.55;100093.75;10355441;28;20532;-85
2023/09/09 06:56:39;;;;;;;6.13;3.25;;;;;;;16.09;62.33;100099.38;10354845;28;20049;-84
2023/09/09 07:01:42;;;;;;;7.00;3.47;;;;;;;16.26;62.11;100102.47;10371940;28;20067;-84
2023/09/09 07:06:44;;;;;;;5.68;3.40;;;;;;;16.33;62.24;100091.28;10354143;28;20077;-85
2023/09/09 07:12:06;;;;;;;6.93;3.38;;;;;;;16.43;62.26;100099.28;10389768;28;20041;-84
2023/09/09 07:17:09;;;;;;;6.40;3.50;;;;;;;16.61;62.00;100097.84;10370583;28;20045;-85
2023/09/09 07:22:12;;;;;;;6.22;3.50;;;;;;;16.58;62.20;100101.56;10386742;28;20137;-84
2023/09/09 07:27:14;;;;;;;6.65;3.85;;;;;;;16.65;62.14;100093.97;10368586;28;20068;-85
2023/09/09 07:32:16;;;;;;;8.40;4.13;;;;;;;16.81;62.22;100104.97;10395175;28;20053;-84
2023/09/09 07:37:19;;;;;;;6.90;3.78;;;;;;;17.22;61.98;100104.16;10379130;28;20056;-84
2023/09/09 07:42:21;;;;;;;5.95;3.55;;;;;;;17.95;60.40;100103.97;10354192;28;20064;-83
2023/09/09 07:47:23;;;;;;;6.85;3.60;;;;;;;18.57;59.25;100092.16;10369823;28;20045;-83
2023/09/09 07:52:25;;;;;;;6.32;3.88;;;;;;;19.09;58.04;100095.38;10353901;28;20095;-84
2023/09/09 07:57:27;;;;;;;7.30;4.28;;;;;;;19.59;56.98;100087.97;10402431;28;20173;-84
2023/09/09 08:02:30;;;;;;;6.38;3.65;;;;;;;20.35;55.91;100079.69;10376603;28;20061;-83
2023/09/09 08:07:33;;;;;;;5.07;3.03;;;;;;;21.00;54.81;100083.78;10361204;28;20041;-83
2023/09/09 08:12:35;;;;;;;6.22;3.20;;;;;;;21.36;53.49;100088.06;10368427;28;20456;-83
2023/09/09 08:17:38;;;;;;;7.00;3.70;;;;;;;21.51;52.37;100081.19;10401217;28;20474;-83
2023/09/09 08:22:40;;;;;;;7.03;3.50;;;;;;;21.41;52.88;100079.63;10377375;28;20414;-84
2023/09/09 08:27:42;;;;;;;5.82;3.25;;;;;;;21.82;52.34;100084.19;10369678;28;20057;-84
2023/09/09 08:32:44;;;;;;;5.32;3.28;;;;;;;22.12;51.49;100077.47;10353096;28;20053;-84
2023/09/09 08:37:46;;;;;;;6.32;3.45;;;;;;;22.44;50.94;100078.41;10376936;28;20061;-84
2023/09/09 08:43:15;;;;;;;7.03;3.88;;;;;;;22.54;49.62;100075.56;10376661;28;20041;-83
2023/09/09 08:48:18;;;;;;;6.63;3.60;;;;;;;22.62;50.31;100079.09;10384395;28;20498;-84
2023/09/09 08:53:21;;;;;;;6.47;3.50;;;;;;;22.85;49.88;100078.47;10376797;28;20780;-85
2023/09/09 08:58:25;;;;;;;8.35;3.33;;;;;;;23.26;49.25;100072.13;10356790;28;20062;-84
2023/09/09 09:03:27;;;;;;;5.90;3.38;;;;;;;23.04;48.93;100078.97;10374789;28;20191;-83
2023/09/09 09:08:34;;;;;;;5.55;3.00;;;;;;;23.44;48.12;100072.78;10367070;28;20064;-83
2023/09/09 09:13:36;;;;;;;7.07;3.08;;;;;;;23.72;48.06;100073.19;10392293;28;20049;-84
2023/09/09 09:18:39;;;;;;;6.97;3.42;;;;;;;23.76;47.95;100069.19;10399002;28;20052;-84
2023/09/09 09:23:46;;;;;;;4.70;3.00;;;;;;;23.91;46.69;100057.59;10382640;28;20597;-84
2023/09/09 09:28:48;;;;;;;5.50;3.20;;;;;;;24.28;46.42;100056.94;10390718;28;20084;-84
2023/09/09 09:33:51;;;;;;;5.97;3.20;;;;;;;24.43;46.01;100051.66;10382486;28;20049;-85
2023/09/09 09:38:53;;;;;;;4.65;2.90;;;;;;;24.49;45.31;100048.28;10389279;28;20057;-84
2023/09/09 09:43:56;;;;;;;4.72;2.95;;;;;;;24.59;45.17;100046.19;10382695;28;20046;-84
2023/09/09 09:49:07;;;;;;;8.25;3.15;;;;;;;24.84;44.24;100043.16;10403404;28;20111;-84
2023/09/09 09:54:17;;;;;;;4.88;2.88;;;;;;;25.01;44.20;100041.19;10389844;28;20091;-84
2023/09/09 09:59:21;;;;;;;6.53;2.90;;;;;;;25.43;44.37;100038.78;10357796;28;20221;-85
2023/09/09 10:04:26;;;;;;;6.63;2.90;;;;;;;25.23;44.55;100039.47;10381405;28;20045;-85
2023/09/09 10:10:04;;;;;;;4.75;2.63;;;;;;;25.57;42.65;100037.13;10365103;28;20073;-84
2023/09/09 10:15:07;;;;;;;4.80;2.88;;;;;;;25.68;43.41;100045.50;10358410;28;20057;-84
2023/09/09 10:20:11;;;;;;;7.25;2.80;;;;;;;25.60;43.41;100036.75;10391052;28;20049;-84
2023/09/09 10:25:14;;;;;;;4.45;2.70;;;;;;;25.79;43.23;100037.00;10371203;28;20081;-84
2023/09/09 10:30:17;;;;;;;4.95;2.80;;;;;;;26.07;43.26;100029.13;10381404;28;20072;-84
2023/09/09 10:35:20;;;;;;;5.28;2.63;;;;;;;25.94;43.11;100020.09;10381383;28;20761;-84
2023/09/09 10:40:25;;;;;;;5.88;2.60;;;;;;;26.47;42.98;100012.44;10372453;28;20106;-84
2023/09/09 10:45:32;;;;;;;4.63;2.70;;;;;;;26.43;43.25;100008.47;10357044;28;20060;-85
2023/09/09 10:50:44;;;;;;;4.03;2.22;;;;;;;26.27;43.52;100006.03;10374221;28;20107;-84
2023/09/09 10:55:48;;;;;;;6.57;2.78;;;;;;;26.42;43.85;100006.00;10373530;28;20913;-84
2023/09/09 11:00:51;;;;;;;4.03;2.50;;;;;;;26.46;44.08;100002.75;10371919;28;20061;-85
2023/09/09 11:06:30;;;;;;;5.68;2.58;;;;;;;26.31;43.97;99993.09;10371148;28;20052;-84
2023/09/09 11:11:37;;;;;;;5.00;2.72;;;;;;;26.59;44.57;100000.19;10353326;28;20119;-85
2023/09/09 11:16:41;;;;;;;6.70;2.67;;;;;;;26.51;44.43;100002.16;10378226;28;20045;-85
2023/09/09 11:21:46;;;;;;;8.63;2.97;;;;;;;26.56;44.25;99997.09;10362578;28;20060;-85
2023/09/09 11:26:50;;;;;;;8.32;2.63;;;;;;;26.69;43.53;99994.50;10378457;28;20554;-86
2023/09/09 11:31:53;;;;;;;6.60;2.75;;;;;;;26.78;43.45;99989.81;10363369;28;20103;-85
2023/09/09 11:36:55;;;;;;;5.10;2.58;;;;;;;26.98;43.79;99988.94;10380971;28;20513;-86
2023/09/09 11:42:02;;;;;;;3.70;2.45;;;;;;;27.12;42.71;99988.00;10380363;28;20049;-86
2023/09/09 11:47:04;;;;;;;3.83;2.47;;;;;;;27.14;42.98;99990.50;10378795;28;20076;-85
2023/09/09 11:52:06;;;;;;;4.75;2.78;;;;;;;27.23;42.92;99987.50;10379932;28;20058;-86
2023/09/09 11:57:09;;;;;;;4.30;2.58;;;;;;;27.42;42.33;99977.91;10369449;28;20054;-85
2023/09/09 12:02:23;;;;;;;4.93;2.70;;;;;;;27.67;42.64;99970.19;10362526;28;20085;-85
2023/09/09 12:07:28;;;;;;;4.68;2.60;;;;;;;27.79;42.67;99972.09;10368538;28;20056;-85
2023/09/09 12:12:31;;;;;;;5.80;2.60;;;;;;;27.83;42.22;99967.16;10361398;28;20054;-85
2023/09/09 12:17:33;;;;;;;8.70;3.08;;;;;;;27.75;41.95;99965.47;10361372;28;20053;-85
2023/09/09 12:22:42;;;;;;;7.30;2.67;;;;;;;27.79;42.02;99969.41;10361069;28;20560;-85
2023/09/09 12:27:45;;;;;;;4.22;2.55;;;;;;;27.94;42.09;99966.56;10377779;28;20054;-86
2023/09/09 12:32:47;;;;;;;5.22;2.67;;;;;;;28.04;41.72;99958.94;10388731;28;20498;-85
2023/09/09 12:37:50;;;;;;;6.13;2.63;;;;;;;28.27;41.36;99960.22;10385453;28;20049;-85
2023/09/09 12:43:09;;;;;;;6.38;2.90;;;;;;;28.51;40.36;99961.53;10384863;28;20084;-85
2023/09/09 12:48:12;;;;;;;4.75;2.70;;;;;;;28.52;41.32;99959.66;10376837;28;20049;-85
2023/09/09 12:53:16;;;;;;;5.18;2.88;;;;;;;28.48;40.85;99964.63;10385230;28;20060;-85
2023/09/09 12:58:18;;;;;;;4.93;2.70;;;;;;;28.84;41.22;99958.81;10384014;28;20081;-86
2023/09/09 13:03:20;;;;;;;5.07;2.72;;;;;;;29.11;40.87;99951.56;10384342;28;20058;-85
2023/09/09 13:08:23;;;;;;;5.10;2.55;;;;;;;29.15;40.08;99955.50;10392285;28;20486;-86
2023/09/09 13:13:25;;;;;;;4.05;2.50;;;;;;;29.01;40.29;99943.94;10400646;28;20055;-86
2023/09/09 13:18:27;;;;;;;4.80;2.70;;;;;;;29.16;39.89;99949.88;10384345;28;20414;-85
2023/09/09 13:23:30;;;;;;;5.20;2.60;;;;;;;29.45;39.91;99941.34;10384978;28;20053;-85
2023/09/09 13:28:32;;;;;;;3.63;2.35;;;;;;;29.54;38.42;99944.63;10368960;28;20041;-84
2023/09/09 13:33:34;;;;;;;6.10;2.90;;;;;;;29.32;39.12;99956.66;10376782;28;20057;-85
2023/09/09 13:38:37;;;;;;;4.55;2.50;;;;;;;29.33;39.45;99945.69;10382507;28;20093;-85
2023/09/09 13:43:39;;;;;;;5.00;2.35;;;;;;;29.27;38.30;99948.41;10365767;28;20057;-85
2023/09/09 13:48:42;;;;;;;4.60;2.50;;;;;;;29.49;37.95;99929.09;10382733;28;20498;-85
2023/09/09 13:53:44;;;;;;;5.47;2.40;;;;;;;29.62;37.87;99930.91;10405195;28;20045;-85
2023/09/09 13:58:46;;;;;;;3.90;2.35;;;;;;;29.72;37.44;99932.06;10398211;28;20057;-85
2023/09/09 14:03:48;;;;;;;7.47;2.78;;;;;;;29.81;37.39;99925.41;10371992;28;20506;-85
2023/09/09 14:08:51;;;;;;;4.75;2.67;;;;;;;29.88;37.25;99917.28;10357388;28;20498;-85
2023/09/09 14:13:53;;;;;;;5.07;2.50;;;;;;;29.86;37.81;99914.81;10397552;28;20059;-85
2023/09/09 14:18:55;;;;;;;4.97;2.60;;;;;;;29.73;37.86;99908.63;10380742;28;20053;-84
2023/09/09 14:23:58;;;;;;;8.02;2.83;;;;;;;29.70;38.35;99906.38;10384728;28;20056;-82
2023/09/09 14:29:00;;;;;;;4.03;2.50;;;;;;;29.51;37.79;99907.31;10362593;28;20081;-83
2023/09/09 14:34:02;;;;;;;4.45;2.58;;;;;;;29.51;37.72;99912.69;10368280;28;20065;-83
2023/09/09 14:39:04;;;;;;;5.10;2.85;;;;;;;29.73;37.42;99908.63;10379808;28;20913;-83
2023/09/09 14:44:06;;;;;;;4.00;2.53;;;;;;;29.80;36.83;99910.28;10370611;28;20514;-83
2023/09/09 14:49:09;;;;;;;4.25;2.50;;;;;;;29.88;37.71;99901.09;10355023;28;20050;-83
2023/09/09 14:54:11;;;;;;;4.82;2.60;;;;;;;29.98;37.58;99901.47;10378952;28;20049;-83
2023/09/09 14:59:13;;;;;;;4.22;2.60;;;;;;;30.00;37.39;99906.66;10384849;28;20061;-84
2023/09/09 15:04:17;;;;;;;6.20;2.50;;;;;;;29.87;37.15;99902.13;10371896;28;20693;-85
2023/09/09 15:09:20;;;;;;;10.25;3.33;;;;;;;29.98;37.62;99906.88;10369682;28;20129;-84
2023/09/09 15:14:45;;;;;;;9.45;2.75;;;;;;;29.93;36.52;99905.88;10361303;28;20136;-84
2023/09/09 15:19:48;;;;;;;6.45;2.80;;;;;;;29.89;36.49;99895.47;10379720;28;20525;-84
2023/09/09 15:24:53;;;;;;;6.00;2.72;;;;;;;29.87;36.41;99900.25;10359104;28;20139;-84
2023/09/09 15:29:56;;;;;;;5.13;2.30;;;;;;;29.81;36.77;99897.59;10370444;28;20099;-84
2023/09/09 15:34:58;;;;;;;5.93;2.60;;;;;;;29.76;35.79;99892.84;10368957;28;20486;-84
2023/09/09 15:40:01;;;;;;;7.72;2.60;;;;;;;29.82;35.94;99900.09;10379789;28;20068;-85
2023/09/09 15:45:06;;;;;;;6.68;2.70;;;;;;;29.82;35.42;99897.41;10359762;28;20097;-84
2023/09/09 15:50:12;;;;;;;11.90;2.50;;;;;;;29.71;34.37;99903.47;10371945;28;20053;-84
2023/09/09 15:55:15;;;;;;;12.00;2.35;;;;;;;29.72;34.59;99905.09;10370668;28;20045;-84
2023/09/09 16:00:17;;;;;;;11.73;2.20;;;;;;;29.60;34.53;99900.63;10384649;28;20176;-84
2023/09/09 16:05:21;;;;;;;6.47;2.30;;;;;;;29.37;34.41;99902.97;10355635;28;20048;-83
2023/09/09 16:10:25;;;;;;;7.60;2.13;;;;;;;29.24;35.23;99900.31;10388428;28;20041;-83
2023/09/09 16:15:29;;;;;;;4.80;2.20;;;;;;;29.22;35.08;99899.72;10375170;28;20510;-84
2023/09/09 16:20:36;;;;;;;6.22;1.90;;;;;;;29.15;35.53;99905.16;10379125;28;20482;-84
2023/09/09 16:25:43;;;;;;;7.85;2.20;;;;;;;29.06;35.81;99904.53;10354391;28;20041;-84
2023/09/09 16:30:48;;;;;;;4.85;2.20;;;;;;;28.98;36.92;99904.78;10363417;28;20049;-84
2023/09/09 16:35:53;;;;;;;11.32;2.78;;;;;;;28.94;37.35;99905.41;10403206;28;20033;-84
2023/09/09 16:40:58;;;;;;;11.23;2.83;;;;;;;28.75;38.14;99912.44;10346517;28;20037;-83
2023/09/09 16:46:02;;;;;;;6.78;3.05;;;;;;;28.65;38.53;99912.03;10389925;28;20084;-83
2023/09/09 16:51:07;;;;;;;8.45;2.80;;;;;;;28.48;38.86;99920.75;10375083;28;20048;-84
2023/09/09 16:56:14;;;;;;;10.45;2.90;;;;;;;28.15;39.28;99918.00;10383711;28;20045;-84
2023/09/09 17:01:19;;;;;;;9.40;3.05;;;;;;;27.84;40.05;99923.09;10376243;28;21162;-84
2023/09/09 17:06:22;;;;;;;7.95;2.38;;;;;;;27.52;40.79;99925.44;10377264;28;20048;-83
2023/09/09 17:11:25;;;;;;;9.38;2.90;;;;;;;27.27;41.74;99935.06;10384350;28;20095;-83
2023/09/09 17:16:29;;;;;;;7.57;2.75;;;;;;;27.05;42.42;99936.16;10376366;28;20044;-83
2023/09/09 17:22:22;;;;;;;5.72;2.38;;;;;;;26.73;43.40;99939.41;10380988;28;20057;-83
2023/09/09 17:27:28;;;;;;;11.85;2.80;;;;;;;26.42;43.95;99938.94;10359572;28;20052;-84
2023/09/09 17:32:35;;;;;;;10.00;2.67;;;;;;;26.15;44.62;99953.97;10360973;28;20458;-83
2023/09/09 17:37:44;;;;;;;5.00;2.38;;;;;;;25.79;45.92;99948.56;10366768;28;20057;-83
2023/09/09 17:42:48;;;;;;;11.15;2.92;;;;;;;25.38;46.85;99947.47;10364136;28;20053;-83
2023/09/09 17:47:55;;;;;;;7.68;2.58;;;;;;;25.10;47.49;99957.16;10369333;28;20568;-83
2023/09/09 17:52:59;;;;;;;7.05;2.70;;;;;;;24.83;48.21;99961.28;10372171;28;21004;-83
2023/09/09 17:58:02;;;;;;;7.03;2.65;;;;;;;24.55;48.92;99964.69;10346576;28;20119;-83
2023/09/09 18:03:07;;;;;;;6.97;2.45;;;;;;;24.32;49.57;99963.84;10322534;28;20042;-84
2023/09/09 18:08:14;;;;;;;6.43;2.97;;;;;;;24.06;50.86;99975.69;10332195;28;20047;-84
2023/09/09 18:13:16;;;;;;;9.18;2.95;;;;;;;23.80;50.88;99980.50;10327261;28;20057;-84
2023/09/09 18:18:18;;;;;;;8.52;3.38;;;;;;;23.49;51.83;99975.16;10333875;28;20101;-84
2023/09/09 18:23:25;;;;;;;10.32;2.55;;;;;;;23.37;52.51;99984.50;10341433;28;20077;-87
2023/09/09 18:28:28;;;;;;;6.65;2.55;;;;;;;23.18;52.79;99997.41;10337296;28;20050;-88
2023/09/09 18:33:31;;;;;;;11.98;3.25;;;;;;;22.98;53.29;99999.63;10331604;28;20057;-87
2023/09/09 18:38:33;;;;;;;12.38;3.85;;;;;;;22.86;53.69;100002.81;10325808;28;20049;-87
2023/09/09 18:43:36;;;;;;;4.53;2.65;;;;;;;22.75;53.85;100005.81;10345286;28;20057;-87
2023/09/09 18:48:38;;;;;;;7.95;3.08;;;;;;;22.59;54.25;100012.78;10340590;28;20038;-87
